createdAt,value
2023-02-27T00:09:08.105Z,82.88
2023-02-27T00:24:50.501Z,83.74
2023-02-27T00:40:33.674Z,84.43
2023-02-27T00:56:16.421Z,87.02
2023-02-27T01:11:58.660Z,87.91
2023-02-27T01:27:41.343Z,88.04
2023-02-27T01:43:24.023Z,89.07
2023-02-27T01:59:06.557Z,88.65
2023-02-27T02:14:49.378Z,90.36
2023-02-27T02:30:32.037Z,91.04
2023-02-27T02:46:15.071Z,93.62
2023-02-27T03:01:57.870Z,93.51
2023-02-27T03:17:40.927Z,93.69
2023-02-27T03:33:23.544Z,95.3
2023-02-27T03:49:06.601Z,95.17
2023-02-27T04:04:49.233Z,96.56
2023-02-27T04:20:31.477Z,96.75
2023-02-27T04:36:14.172Z,96.48
2023-02-27T04:51:57.158Z,96.99
2023-02-27T05:07:39.514Z,97.31
2023-02-27T05:23:22.092Z,97.74
2023-02-27T05:39:05.182Z,99.52
2023-02-27T05:54:47.742Z,99
2023-02-27T06:10:30.459Z,100
2023-02-27T06:26:13.252Z,99.92
2023-02-27T06:41:55.674Z,99.62
2023-02-27T06:57:38.663Z,99.26
2023-02-27T07:13:21.686Z,97.92
2023-02-27T07:29:04.354Z,98.22
2023-02-27T07:44:46.605Z,96.42
2023-02-27T08:00:29.143Z,96.35
2023-02-27T08:16:11.561Z,95.53
2023-02-27T08:47:36.949Z,92.57
2023-02-27T09:03:19.432Z,87.25
2023-02-27T09:19:02.455Z,82.1
2023-02-27T09:34:44.919Z,76.81
2023-02-27T09:50:27.421Z,73.94
2023-02-27T10:06:10.383Z,71.59
2023-02-27T10:21:52.781Z,63.82
2023-02-27T10:37:35.989Z,60.11
2023-02-27T10:53:18.138Z,57.6
2023-02-27T11:09:00.965Z,50.17
2023-02-27T11:24:43.239Z,48.22
2023-02-27T11:40:26.249Z,49.05
2023-02-27T11:56:09.099Z,48.49
2023-02-27T12:11:51.489Z,49.04
2023-02-27T12:27:33.930Z,45.15
2023-02-27T12:43:16.820Z,42.05
2023-02-27T12:58:59.855Z,42.26
2023-02-27T13:14:42.288Z,40.7
2023-02-27T13:30:25.150Z,36.27
2023-02-27T13:46:07.960Z,30.14
2023-02-27T14:01:50.612Z,33.7
2023-02-27T14:17:33.629Z,38.56
2023-02-27T14:33:16.744Z,41
2023-02-27T14:48:59.437Z,43.4
2023-02-27T15:04:41.935Z,43.94
2023-02-27T15:20:24.540Z,46.13
2023-02-27T15:36:07.107Z,47.29
2023-02-27T15:51:49.606Z,48.48
2023-02-27T16:07:31.843Z,51.94
2023-02-27T16:23:14.509Z,53.68
2023-02-27T16:38:57.410Z,55.19
2023-02-27T16:54:39.850Z,56.54
2023-02-27T17:10:22.435Z,58.31
2023-02-27T17:26:04.805Z,59.63
2023-02-27T17:41:47.765Z,60.87
2023-02-27T17:57:30.767Z,61.99
2023-02-27T18:13:13.290Z,63.29
2023-02-27T18:28:55.950Z,63.5
2023-02-27T18:44:38.592Z,64.96
2023-02-27T18:45:26.044Z,65.16
2023-02-27T19:01:08.302Z,66.29
2023-02-27T19:16:50.836Z,69.01
2023-02-27T19:32:33.684Z,69.55
2023-02-27T19:48:16.872Z,70.1
2023-02-27T20:03:59.370Z,70.49
2023-02-27T20:19:42.383Z,71.98
2023-02-27T20:35:25.155Z,73.1
2023-02-27T20:51:08.218Z,74.53
2023-02-27T21:06:51.215Z,76.6
2023-02-27T21:22:33.584Z,76.88
2023-02-27T21:38:15.953Z,78.31
2023-02-27T21:53:58.214Z,81.1
2023-02-27T22:09:40.578Z,80
2023-02-27T22:25:23.004Z,80.84
2023-02-27T22:41:05.765Z,82.22
2023-02-27T22:56:48.866Z,83.61
2023-02-27T23:12:31.503Z,85.08
2023-02-27T23:28:14.538Z,84.99
2023-02-27T23:43:57.676Z,85.96
2023-02-27T23:59:39.941Z,86.48
